Relevés horaires Saint-Mandrier-sur-Mer - Cap Cépet (France)


Relevés horaires à Saint-Mandrier-sur-Mer - Cap Cépet - Vendredi 31 Janv. 2020
Heure UTC1 Température [°C] Vent [km/h] Hum. [%] Pres.4 [hPa] Visi. [Km] Nébu. [octa] Préc.5 [mm] Cond.
2m. Res. Ros. Dir.2 Vit. Moy. Raf.3
23:00 10.2 9.4 9.6 E 7.4 -- 11.1 96 1020.2(0.2/3h) -- -- -- --
22:00 10.1 9.3 9.5 E 7.4 -- 11.1 96 1020.1(0.5/3h) -- -- -- --
21:00 10.5 9.7 9.7 E 7.4 -- 9.3 95 1020.1(0.9/3h) -- -- -- --
20:00 11.1 10.8 10.2 E 5.6 -- 7.4 94 1020(1.4/3h) -- -- -- --
19:00 11.6 11.6 10.7 E 3.7 -- 7.4 94 1019.5(1.5/3h) -- -- -- --
18:00 11.6 11 10.7 N 7.4 -- 13.0 94 1019.1(1.3/3h) -- -- -- --
17:00 12.1 11.2 10.7 NNO 9.3 -- 14.8 91 1018.5(0.5/3h) -- -- -- --
16:00 12.9 11.9 10.4 NO 11.1 -- 20.4 85 1017.9(-0.1/3h) -- -- -- --
15:00 14.4 13.4 9.8 NO 14.8 -- 22.2 74 1017.6(-1.0/3h) 25 2/8 -- --
14:00 14.1 13.2 9.3 NO 13.0 -- 22.2 73 1017.9(-1.3/3h) -- -- -- --
13:00 14.5 13.3 9.3 NO 16.7 -- 22.2 71 1017.9(-1.7/3h) -- -- -- --
12:00 14.4 13.5 9.6 ONO 13.0 -- 20.4 73 1018.7(-0.7/3h) -- -- -- --
11:00 13.7 12.7 9.1 NO 13.0 -- 18.5 74 1019.2(0.1/3h) -- -- -- --
10:00 13.9 13.1 9.3 NO 11.1 -- 13.0 74 1019.7(1.1/3h) -- -- -- --
09:00 13.0 12.3 9.4 NNO 9.3 -- 16.7 79 1019.4(1.0/3h) 25 2/8 -- --
08:00 12.0 10.6 9.4 NO 13.0 -- 20.4 84 1019.2(0.6/3h) -- -- -- --
07:00 11.7 10.2 9.3 NO 13.0 -- 20.4 85 1018.7(0.0/3h) -- -- -- --
06:00 11.3 9.8 9.0 NO 13.0 -- 18.5 86 1018.5(-0.6/3h) -- -- -- --
05:00 11.4 10.1 9.1 NO 11.1 -- 16.7 86 1018.6(-0.7/3h) -- -- -- --
04:00 10.6 9.2 8.7 NO 11.1 -- 14.8 88 1018.8(-0.6/3h) -- -- -- --
03:00 10.8 10.1 8.4 NO 7.4 -- 13.0 85 1019.2(-0.2/3h) -- -- -- --
02:00 10.6 9.8 8.2 NO 7.4 -- 11.1 85 1019.4(-0.2/3h) -- -- -- --
01:00 10.7 10.4 8.1 N 5.6 -- 13.0 84 1019.4(-0.2/3h) -- -- -- --
00:00 10.7 9.3 8.1 NO 11.1 -- 16.7 84 1019.4(-0.3/3h) -- -- -- --

1 Coordinated Universal Time. Actuellement il est 16:00 locale et 15:00 UTC.

2 Le vent souffle depuis la direction indiquée vers la direction oposée.

3 Les rafales max. sont disponible 40 min après l'heure du relevé.

4 Pour les stations d'altitude (plus de 600m) le géopotentiel du niveau le plus proche de la pression obligatoire est indiqué.

5 Les stations disposant d'un diffuseur peuvent indiquer "trace". Cela signifie que des précipitations ont touchés le sol mais que la quantité est inférieure à 0.1 mm.

Récapitulatif de la journée
Température [°C] Vent [km/h] Ensoleillement4 [h] Precipitations totale5 [mm] Pression [Hpa]
Min1 Max.2 Moy.3 Max. Min Max.
10.3 14.7 0 22.2 0 h 0 min 0 1017.6 1020.2

1 Température minimale relevée entre 18:00 UTC la veille et 18:00 UTC le jour donné.

2 Température maximale relevée entre 06:00 UTC le jour donné et 06:00 UTC le lendemain.

3 Vent moyen de la journée basé sur les relevés horaires.

4 Ensoleillement en heures relevé entre 06:00 UTC la veille et 06:00 UTC le jour donné.

5 Précipitations totales tombées entre 06:00 UTC la jour donné et 06:00 UTC le lendemain.

Graphiques horaires